Time,TemperatureF,DewpointF,PressureIn,WindDirection,WindDirectionDegrees,WindSpeedMPH,WindSpeedGustMPH,Humidity,HourlyPrecipIn,Conditions,Clouds,dailyrainin,SoftwareType,DateUTC
2013-01-28 00:04:00,69.0,62.0,30.26,East,88,6.0,10.0,79,-99.99,,,-99.99,,2013-01-28 05:04:00,
2013-01-28 00:12:00,69.0,63.0,30.26,East,85,6.0,10.0,78,-99.99,,,-99.99,,2013-01-28 05:12:00,
2013-01-28 00:22:00,69.0,63.0,30.26,East,85,6.0,10.0,78,-99.99,,,-99.99,,2013-01-28 05:22:00,
2013-01-28 00:32:00,70.0,63.0,30.25,East,91,6.0,8.0,78,-99.99,,,-99.99,,2013-01-28 05:32:00,
2013-01-28 00:42:00,70.0,63.0,30.25,East,98,7.0,10.0,78,-99.99,,,-99.99,,2013-01-28 05:42:00,
2013-01-28 00:52:00,69.0,62.0,30.25,East,98,6.0,10.0,78,-99.99,,,-99.99,,2013-01-28 05:52:00,
2013-01-28 01:02:00,69.0,62.0,30.25,East,98,6.0,10.0,78,-99.99,,,-99.99,,2013-01-28 06:02:00,
2013-01-28 01:11:00,70.0,62.0,30.25,East,98,7.0,11.0,77,-99.99,,,-99.99,,2013-01-28 06:11:00,
2013-01-28 01:22:00,70.0,62.0,30.25,East,98,7.0,11.0,77,-99.99,,,-99.99,,2013-01-28 06:22:00,
2013-01-28 01:32:00,69.0,62.0,30.25,ESE,102,7.0,10.0,77,-99.99,,,-99.99,,2013-01-28 06:32:00,
2013-01-28 01:42:00,69.0,62.0,30.25,East,99,8.0,11.0,77,-99.99,,,-99.99,,2013-01-28 06:42:00,
2013-01-28 01:52:00,70.0,62.0,30.24,East,95,8.0,12.0,76,-99.99,,,-99.99,,2013-01-28 06:52:00,
2013-01-28 02:03:00,70.0,62.0,30.24,East,95,8.0,12.0,76,-99.99,,,-99.99,,2013-01-28 07:03:00,
2013-01-28 02:11:00,70.0,62.0,30.24,East,100,7.0,11.0,75,-99.99,,,-99.99,,2013-01-28 07:11:00,
2013-01-28 02:22:00,70.0,62.0,30.24,East,100,7.0,11.0,75,-99.99,,,-99.99,,2013-01-28 07:22:00,
2013-01-28 02:32:00,69.0,61.0,30.24,East,98,8.0,13.0,75,-99.99,,,-99.99,,2013-01-28 07:32:00,
2013-01-28 02:42:00,70.0,61.0,30.24,ESE,102,8.0,13.0,73,-99.99,,,-99.99,,2013-01-28 07:42:00,
2013-01-28 02:52:00,70.0,61.0,30.24,East,97,7.0,13.0,71,-99.99,,,-99.99,,2013-01-28 07:52:00,
2013-01-28 03:01:00,70.0,61.0,30.24,East,97,7.0,13.0,71,-99.99,,,-99.99,,2013-01-28 08:01:00,
2013-01-28 03:11:00,70.0,60.0,30.24,East,100,7.0,11.0,71,-99.99,,,-99.99,,2013-01-28 08:11:00,
2013-01-28 03:21:00,70.0,60.0,30.24,East,100,7.0,11.0,71,-99.99,,,-99.99,,2013-01-28 08:21:00,
2013-01-28 03:32:00,70.0,60.0,30.24,East,100,7.0,11.0,71,-99.99,,,-99.99,,2013-01-28 08:32:00,
2013-01-28 03:42:00,69.0,60.0,30.23,East,89,5.0,7.0,73,-99.99,,,-99.99,,2013-01-28 08:42:00,
2013-01-28 03:53:00,69.0,60.0,30.23,East,82,5.0,8.0,74,-99.99,,,-99.99,,2013-01-28 08:53:00,
2013-01-28 04:02:00,69.0,60.0,30.23,East,82,5.0,8.0,74,-99.99,,,-99.99,,2013-01-28 09:02:00,
2013-01-28 04:12:00,68.0,61.0,30.23,East,85,5.0,7.0,76,-99.99,,,-99.99,,2013-01-28 09:12:00,
2013-01-28 04:22:00,68.0,61.0,30.23,East,85,5.0,7.0,76,-99.99,,,-99.99,,2013-01-28 09:22:00,
2013-01-28 04:32:00,68.0,61.0,30.23,East,84,6.0,8.0,77,-99.99,,,-99.99,,2013-01-28 09:32:00,
2013-01-28 04:42:00,69.0,62.0,30.23,East,90,6.0,8.0,78,-99.99,,,-99.99,,2013-01-28 09:42:00,
2013-01-28 04:52:00,68.0,62.0,30.23,East,95,6.0,10.0,80,-99.99,,,-99.99,,2013-01-28 09:52:00,
2013-01-28 05:02:00,68.0,62.0,30.23,East,95,6.0,10.0,80,-99.99,,,-99.99,,2013-01-28 10:02:00,
2013-01-28 05:11:00,69.0,62.0,30.23,East,99,6.0,9.0,78,-99.99,,,-99.99,,2013-01-28 10:11:00,
2013-01-28 05:21:00,69.0,62.0,30.23,East,99,6.0,9.0,78,-99.99,,,-99.99,,2013-01-28 10:21:00,
2013-01-28 05:32:00,69.0,61.0,30.23,East,101,6.0,9.0,76,-99.99,,,-99.99,,2013-01-28 10:32:00,
2013-01-28 05:42:00,69.0,61.0,30.23,East,98,5.0,9.0,76,-99.99,,,-99.99,,2013-01-28 10:42:00,
2013-01-28 05:52:00,69.0,61.0,30.23,East,99,5.0,11.0,76,-99.99,,,-99.99,,2013-01-28 10:52:00,
2013-01-28 06:02:00,69.0,61.0,30.23,East,99,5.0,11.0,76,-99.99,,,-99.99,,2013-01-28 11:02:00,
2013-01-28 06:11:00,68.0,61.0,30.24,ENE,69,4.0,5.0,77,-99.99,,,-99.99,,2013-01-28 11:11:00,
2013-01-28 06:22:00,68.0,61.0,30.24,ENE,69,4.0,5.0,77,-99.99,,,-99.99,,2013-01-28 11:22:00,
2013-01-28 06:32:00,68.0,61.0,30.24,ENE,69,4.0,5.0,77,-99.99,,,-99.99,,2013-01-28 11:32:00,
2013-01-28 06:42:00,68.0,62.0,30.24,North,7999,0.0,41.0,79,-99.99,,,-99.99,,2013-01-28 11:42:00,
2013-01-28 06:52:00,68.0,62.0,30.25,ESE,109,7.0,10.0,79,-99.99,,,-99.99,,2013-01-28 11:52:00,
2013-01-28 07:03:00,68.0,62.0,30.25,ESE,109,7.0,10.0,79,-99.99,,,-99.99,,2013-01-28 12:03:00,
2013-01-28 07:12:00,68.0,62.0,30.25,East,100,5.0,10.0,80,-99.99,,,-99.99,,2013-01-28 12:12:00,
2013-01-28 07:23:00,68.0,62.0,30.25,East,100,5.0,10.0,80,-99.99,,,-99.99,,2013-01-28 12:23:00,
2013-01-28 07:33:00,68.0,62.0,30.25,ESE,103,5.0,9.0,80,-99.99,,,-99.99,,2013-01-28 12:33:00,
2013-01-28 07:42:00,69.0,62.0,30.26,ESE,102,6.0,9.0,78,-99.99,,,-99.99,,2013-01-28 12:42:00,
2013-01-28 07:53:00,69.0,62.0,30.26,ESE,102,6.0,9.0,78,-99.99,,,-99.99,,2013-01-28 12:53:00,
2013-01-28 08:03:00,69.0,62.0,30.26,ESE,102,6.0,9.0,78,-99.99,,,-99.99,,2013-01-28 13:03:00,
2013-01-28 08:12:00,69.0,62.0,30.26,ESE,102,6.0,9.0,78,-99.99,,,-99.99,,2013-01-28 13:12:00,
2013-01-28 08:53:00,69.0,62.0,30.26,ESE,102,6.0,9.0,78,-99.99,,,-99.99,,2013-01-28 13:53:00,
2013-01-28 09:03:00,69.0,62.0,30.26,ESE,102,6.0,9.0,78,-99.99,,,-99.99,,2013-01-28 14:03:00,
2013-01-28 09:12:00,74.0,63.0,30.27,ESE,109,9.0,15.0,68,-99.99,,,-99.99,,2013-01-28 14:12:00,
2013-01-28 09:23:00,74.0,63.0,30.27,ESE,109,9.0,15.0,68,-99.99,,,-99.99,,2013-01-28 14:23:00,
2013-01-28 09:33:00,74.0,63.0,30.27,ESE,109,9.0,15.0,68,-99.99,,,-99.99,,2013-01-28 14:33:00,
2013-01-28 09:43:00,75.0,63.0,30.28,ESE,115,11.0,19.0,65,-99.99,,,-99.99,,2013-01-28 14:43:00,
2013-01-28 09:53:00,76.0,63.0,30.29,ESE,119,11.0,18.0,64,-99.99,,,-99.99,,2013-01-28 14:53:00,
2013-01-28 10:03:00,76.0,63.0,30.29,ESE,119,11.0,18.0,64,-99.99,,,-99.99,,2013-01-28 15:03:00,
2013-01-28 10:13:00,76.0,64.0,30.29,ESE,119,11.0,18.0,65,-99.99,,,-99.99,,2013-01-28 15:13:00,
2013-01-28 10:23:00,76.0,64.0,30.29,ESE,119,11.0,18.0,65,-99.99,,,-99.99,,2013-01-28 15:23:00,
2013-01-28 10:33:00,76.0,64.0,30.30,ESE,121,12.0,18.0,64,-99.99,,,-99.99,,2013-01-28 15:33:00,
2013-01-28 10:43:00,76.0,64.0,30.30,SE,125,13.0,20.0,64,-99.99,,,-99.99,,2013-01-28 15:43:00,
2013-01-28 10:53:00,77.0,64.0,30.30,ESE,122,12.0,21.0,64,-99.99,,,-99.99,,2013-01-28 15:53:00,
2013-01-28 11:04:00,77.0,64.0,30.30,ESE,122,12.0,21.0,64,-99.99,,,-99.99,,2013-01-28 16:04:00,
2013-01-28 11:13:00,77.0,64.0,30.30,ESE,118,12.0,19.0,63,-99.99,,,-99.99,,2013-01-28 16:13:00,
2013-01-28 11:22:00,77.0,64.0,30.30,ESE,118,12.0,19.0,63,-99.99,,,-99.99,,2013-01-28 16:22:00,
2013-01-28 11:33:00,77.0,64.0,30.30,ESE,118,12.0,19.0,63,-99.99,,,-99.99,,2013-01-28 16:33:00,
2013-01-28 11:43:00,77.0,64.0,30.30,ESE,118,12.0,19.0,63,-99.99,,,-99.99,,2013-01-28 16:43:00,
2013-01-28 12:42:00,78.0,63.0,30.29,ESE,122,12.0,20.0,60,-99.99,,,-99.99,,2013-01-28 17:42:00,
2013-01-28 12:53:00,78.0,64.0,30.28,SE,131,13.0,20.0,61,-99.99,,,-99.99,,2013-01-28 17:53:00,
2013-01-28 13:03:00,78.0,64.0,30.28,SE,131,13.0,20.0,61,-99.99,,,-99.99,,2013-01-28 18:03:00,
2013-01-28 13:13:00,79.0,64.0,30.27,ESE,114,12.0,19.0,60,-99.99,,,-99.99,,2013-01-28 18:13:00,
2013-01-28 13:23:00,79.0,64.0,30.27,ESE,114,12.0,19.0,60,-99.99,,,-99.99,,2013-01-28 18:23:00,
2013-01-28 13:33:00,78.0,63.0,30.26,ESE,109,14.0,22.0,60,-99.99,,,-99.99,,2013-01-28 18:33:00,
2013-01-28 13:42:00,78.0,64.0,30.25,ESE,112,13.0,20.0,62,-99.99,,,-99.99,,2013-01-28 18:42:00,
2013-01-28 13:53:00,78.0,64.0,30.24,SE,127,12.0,20.0,60,-99.99,,,-99.99,,2013-01-28 18:53:00,
2013-01-28 14:02:00,78.0,64.0,30.24,SE,127,12.0,20.0,60,-99.99,,,-99.99,,2013-01-28 19:02:00,
2013-01-28 14:12:00,78.0,64.0,30.24,SE,128,12.0,18.0,60,-99.99,,,-99.99,,2013-01-28 19:12:00,
2013-01-28 14:22:00,78.0,64.0,30.24,SE,128,12.0,18.0,60,-99.99,,,-99.99,,2013-01-28 19:22:00,
2013-01-28 14:33:00,78.0,64.0,30.23,ESE,116,14.0,21.0,61,-99.99,,,-99.99,,2013-01-28 19:33:00,
2013-01-28 14:42:00,78.0,64.0,30.23,ESE,115,13.0,20.0,61,-99.99,,,-99.99,,2013-01-28 19:42:00,
2013-01-28 14:53:00,78.0,63.0,30.23,SE,124,12.0,21.0,60,-99.99,,,-99.99,,2013-01-28 19:53:00,
2013-01-28 15:03:00,78.0,63.0,30.23,SE,124,12.0,21.0,60,-99.99,,,-99.99,,2013-01-28 20:03:00,
2013-01-28 15:12:00,78.0,61.0,30.22,SE,131,12.0,20.0,56,-99.99,,,-99.99,,2013-01-28 20:12:00,
2013-01-28 15:22:00,78.0,61.0,30.22,SE,131,12.0,20.0,56,-99.99,,,-99.99,,2013-01-28 20:22:00,
2013-01-28 15:33:00,78.0,61.0,30.22,SE,131,12.0,20.0,56,-99.99,,,-99.99,,2013-01-28 20:33:00,
2013-01-28 15:42:00,78.0,63.0,30.22,ESE,121,10.0,16.0,59,-99.99,,,-99.99,,2013-01-28 20:42:00,
2013-01-28 15:53:00,78.0,63.0,30.22,SE,127,11.0,16.0,59,-99.99,,,-99.99,,2013-01-28 20:53:00,
2013-01-28 16:03:00,78.0,63.0,30.22,SE,127,11.0,16.0,59,-99.99,,,-99.99,,2013-01-28 21:03:00,
2013-01-28 16:12:00,78.0,63.0,30.21,SE,125,11.0,20.0,60,-99.99,,,-99.99,,2013-01-28 21:12:00,
2013-01-28 16:23:00,78.0,63.0,30.21,SE,125,11.0,20.0,60,-99.99,,,-99.99,,2013-01-28 21:23:00,
2013-01-28 16:33:00,78.0,63.0,30.21,SE,125,11.0,20.0,60,-99.99,,,-99.99,,2013-01-28 21:33:00,
2013-01-28 16:43:00,78.0,63.0,30.21,SE,125,11.0,20.0,60,-99.99,,,-99.99,,2013-01-28 21:43:00,
2013-01-28 17:02:00,78.0,63.0,30.21,SE,125,11.0,20.0,60,-99.99,,,-99.99,,2013-01-28 22:02:00,
2013-01-28 17:12:00,78.0,63.0,30.21,SE,125,11.0,20.0,60,-99.99,,,-99.99,,2013-01-28 22:12:00,
2013-01-28 17:23:00,78.0,63.0,30.21,SE,125,11.0,20.0,60,-99.99,,,-99.99,,2013-01-28 22:23:00,
2013-01-28 17:33:00,76.0,64.0,30.21,ESE,118,10.0,18.0,65,-99.99,,,-99.99,,2013-01-28 22:33:00,
2013-01-28 17:42:00,75.0,64.0,30.21,ESE,118,11.0,18.0,68,-99.99,,,-99.99,,2013-01-28 22:42:00,
2013-01-28 17:52:00,75.0,64.0,30.22,ESE,116,9.0,15.0,69,-99.99,,,-99.99,,2013-01-28 22:52:00,
2013-01-28 18:03:00,75.0,64.0,30.22,ESE,116,9.0,15.0,69,-99.99,,,-99.99,,2013-01-28 23:03:00,
2013-01-28 18:12:00,74.0,64.0,30.22,ESE,122,8.0,14.0,70,-99.99,,,-99.99,,2013-01-28 23:12:00,
2013-01-28 18:22:00,74.0,64.0,30.22,ESE,122,8.0,14.0,70,-99.99,,,-99.99,,2013-01-28 23:22:00,
2013-01-28 18:32:00,74.0,64.0,30.22,ESE,122,8.0,14.0,70,-99.99,,,-99.99,,2013-01-28 23:32:00,
2013-01-28 18:42:00,74.0,65.0,30.23,ESE,115,7.0,12.0,73,-99.99,,,-99.99,,2013-01-28 23:42:00,
2013-01-28 18:53:00,73.0,65.0,30.23,ESE,112,7.0,12.0,76,-99.99,,,-99.99,,2013-01-28 23:53:00,
2013-01-28 19:02:00,73.0,65.0,30.23,ESE,112,7.0,12.0,76,-99.99,,,-99.99,,2013-01-29 00:02:00,
2013-01-28 19:12:00,73.0,65.0,30.23,ESE,111,7.0,11.0,76,-99.99,,,-99.99,,2013-01-29 00:12:00,
2013-01-28 19:22:00,73.0,65.0,30.23,ESE,111,7.0,11.0,76,-99.99,,,-99.99,,2013-01-29 00:22:00,
2013-01-28 19:33:00,72.0,65.0,30.23,ESE,113,7.0,12.0,77,-99.99,,,-99.99,,2013-01-29 00:33:00,
2013-01-28 19:42:00,72.0,65.0,30.23,ESE,109,6.0,9.0,79,-99.99,,,-99.99,,2013-01-29 00:42:00,
2013-01-28 19:52:00,72.0,65.0,30.23,ESE,102,5.0,8.0,79,-99.99,,,-99.99,,2013-01-29 00:52:00,
2013-01-28 20:02:00,72.0,65.0,30.23,ESE,102,5.0,8.0,79,-99.99,,,-99.99,,2013-01-29 01:02:00,
2013-01-28 20:12:00,71.0,65.0,30.24,East,98,5.0,8.0,80,-99.99,,,-99.99,,2013-01-29 01:12:00,
2013-01-28 20:23:00,71.0,65.0,30.24,East,98,5.0,8.0,80,-99.99,,,-99.99,,2013-01-29 01:23:00,
2013-01-28 20:32:00,71.0,65.0,30.23,East,94,6.0,8.0,80,-99.99,,,-99.99,,2013-01-29 01:32:00,
2013-01-28 20:42:00,72.0,65.0,30.23,East,99,6.0,9.0,79,-99.99,,,-99.99,,2013-01-29 01:42:00,
2013-01-28 20:53:00,72.0,65.0,30.23,East,99,5.0,9.0,79,-99.99,,,-99.99,,2013-01-29 01:53:00,
2013-01-28 21:02:00,72.0,65.0,30.23,East,99,5.0,9.0,79,-99.99,,,-99.99,,2013-01-29 02:02:00,
2013-01-28 21:12:00,72.0,65.0,30.24,ESE,109,5.0,8.0,78,-99.99,,,-99.99,,2013-01-29 02:12:00,
2013-01-28 21:22:00,72.0,65.0,30.24,ESE,109,5.0,8.0,78,-99.99,,,-99.99,,2013-01-29 02:22:00,
2013-01-28 21:33:00,72.0,65.0,30.24,ESE,109,5.0,8.0,78,-99.99,,,-99.99,,2013-01-29 02:33:00,
2013-01-28 21:42:00,73.0,65.0,30.24,ESE,111,5.0,8.0,77,-99.99,,,-99.99,,2013-01-29 02:42:00,
2013-01-28 21:53:00,73.0,66.0,30.24,East,94,6.0,9.0,78,-99.99,,,-99.99,,2013-01-29 02:53:00,
2013-01-28 22:03:00,73.0,66.0,30.24,East,94,6.0,9.0,78,-99.99,,,-99.99,,2013-01-29 03:03:00,
2013-01-28 22:12:00,72.0,66.0,30.23,East,95,6.0,9.0,80,-99.99,,,-99.99,,2013-01-29 03:12:00,
2013-01-28 22:22:00,72.0,66.0,30.23,East,95,6.0,9.0,80,-99.99,,,-99.99,,2013-01-29 03:22:00,
2013-01-28 22:32:00,72.0,66.0,30.24,East,101,6.0,9.0,82,-99.99,,,-99.99,,2013-01-29 03:32:00,
2013-01-28 22:42:00,72.0,67.0,30.24,ESE,103,7.0,11.0,83,-99.99,,,-99.99,,2013-01-29 03:42:00,
2013-01-28 22:53:00,72.0,67.0,30.24,ESE,102,6.0,10.0,84,-99.99,,,-99.99,,2013-01-29 03:53:00,
2013-01-28 23:02:00,72.0,67.0,30.24,ESE,102,6.0,10.0,84,-99.99,,,-99.99,,2013-01-29 04:02:00,
2013-01-28 23:12:00,72.0,67.0,30.24,East,101,5.0,9.0,84,-99.99,,,-99.99,,2013-01-29 04:12:00,
2013-01-28 23:22:00,72.0,67.0,30.24,East,101,5.0,9.0,84,-99.99,,,-99.99,,2013-01-29 04:22:00,
2013-01-28 23:32:00,72.0,67.0,30.24,ESE,102,5.0,8.0,85,-99.99,,,-99.99,,2013-01-29 04:32:00,
2013-01-28 23:42:00,71.0,66.0,30.24,East,101,5.0,8.0,84,-99.99,,,-99.99,,2013-01-29 04:42:00,
2013-01-28 23:52:00,71.0,66.0,30.23,ESE,104,5.0,8.0,84,-99.99,,,-99.99,,2013-01-29 04:52:00,